sensor_id;sensor_type;location;lat;lon;timestamp;temperature;humidity
4399;DHT22;2213;49.720;7.296;2023-09-12T00:01:17;19.60;99.90
4399;DHT22;2213;49.720;7.296;2023-09-12T00:03:47;19.60;99.90
4399;DHT22;2213;49.720;7.296;2023-09-12T00:06:18;19.60;99.90
4399;DHT22;2213;49.720;7.296;2023-09-12T00:08:49;19.70;99.90
4399;DHT22;2213;49.720;7.296;2023-09-12T00:11:20;19.40;99.90
4399;DHT22;2213;49.720;7.296;2023-09-12T00:13:54;19.50;99.90
4399;DHT22;2213;49.720;7.296;2023-09-12T00:16:25;19.50;99.90
4399;DHT22;2213;49.720;7.296;2023-09-12T00:18:56;19.60;99.90
4399;DHT22;2213;49.720;7.296;2023-09-12T00:21:28;19.60;99.90
4399;DHT22;2213;49.720;7.296;2023-09-12T00:23:58;19.60;99.90
4399;DHT22;2213;49.720;7.296;2023-09-12T00:26:28;19.60;99.90
4399;DHT22;2213;49.720;7.296;2023-09-12T00:28:59;19.50;99.90
4399;DHT22;2213;49.720;7.296;2023-09-12T00:31:30;19.50;99.90
4399;DHT22;2213;49.720;7.296;2023-09-12T00:33:59;19.50;99.90
4399;DHT22;2213;49.720;7.296;2023-09-12T00:36:30;19.50;99.90
4399;DHT22;2213;49.720;7.296;2023-09-12T00:39:00;19.50;99.90
4399;DHT22;2213;49.720;7.296;2023-09-12T00:41:30;19.50;99.90
4399;DHT22;2213;49.720;7.296;2023-09-12T00:44:00;19.50;99.90
4399;DHT22;2213;49.720;7.296;2023-09-12T00:46:31;19.60;99.90
4399;DHT22;2213;49.720;7.296;2023-09-12T00:49:02;19.60;99.90
4399;DHT22;2213;49.720;7.296;2023-09-12T00:51:36;19.50;99.90
4399;DHT22;2213;49.720;7.296;2023-09-12T00:54:07;19.40;99.90
4399;DHT22;2213;49.720;7.296;2023-09-12T00:56:37;19.30;99.90
4399;DHT22;2213;49.720;7.296;2023-09-12T00:59:09;19.40;99.90
4399;DHT22;2213;49.720;7.296;2023-09-12T01:01:41;19.30;99.90
4399;DHT22;2213;49.720;7.296;2023-09-12T01:04:11;19.30;99.90
4399;DHT22;2213;49.720;7.296;2023-09-12T01:07:02;19.40;99.90
4399;DHT22;2213;49.720;7.296;2023-09-12T01:09:33;19.50;99.90
4399;DHT22;2213;49.720;7.296;2023-09-12T01:12:05;19.50;99.90
4399;DHT22;2213;49.720;7.296;2023-09-12T01:14:35;19.50;99.90
4399;DHT22;2213;49.720;7.296;2023-09-12T01:17:05;19.40;99.90
4399;DHT22;2213;49.720;7.296;2023-09-12T01:19:34;19.40;99.90
4399;DHT22;2213;49.720;7.296;2023-09-12T01:22:26;19.30;99.90
4399;DHT22;2213;49.720;7.296;2023-09-12T01:25:35;19.30;99.90
4399;DHT22;2213;49.720;7.296;2023-09-12T01:28:19;19.30;99.90
4399;DHT22;2213;49.720;7.296;2023-09-12T01:30:52;19.20;99.90
4399;DHT22;2213;49.720;7.296;2023-09-12T01:33:23;19.30;99.90
4399;DHT22;2213;49.720;7.296;2023-09-12T01:35:52;19.30;99.90
4399;DHT22;2213;49.720;7.296;2023-09-12T01:38:22;19.30;99.90
4399;DHT22;2213;49.720;7.296;2023-09-12T01:40:53;19.30;99.90
4399;DHT22;2213;49.720;7.296;2023-09-12T01:43:27;19.10;99.90
4399;DHT22;2213;49.720;7.296;2023-09-12T01:45:59;19.10;99.90
4399;DHT22;2213;49.720;7.296;2023-09-12T01:48:33;19.10;99.90
4399;DHT22;2213;49.720;7.296;2023-09-12T01:51:05;19.20;99.90
4399;DHT22;2213;49.720;7.296;2023-09-12T01:53:36;19.10;99.90
4399;DHT22;2213;49.720;7.296;2023-09-12T01:56:07;19.00;99.90
4399;DHT22;2213;49.720;7.296;2023-09-12T01:58:39;18.90;99.90
4399;DHT22;2213;49.720;7.296;2023-09-12T02:01:11;18.90;99.90
4399;DHT22;2213;49.720;7.296;2023-09-12T02:03:40;18.90;99.90
4399;DHT22;2213;49.720;7.296;2023-09-12T02:06:10;18.90;99.90
4399;DHT22;2213;49.720;7.296;2023-09-12T02:08:41;19.00;99.90
4399;DHT22;2213;49.720;7.296;2023-09-12T02:11:12;19.10;99.90
4399;DHT22;2213;49.720;7.296;2023-09-12T02:13:43;19.00;99.90
4399;DHT22;2213;49.720;7.296;2023-09-12T02:16:14;19.00;99.90
4399;DHT22;2213;49.720;7.296;2023-09-12T02:18:44;18.90;99.90
4399;DHT22;2213;49.720;7.296;2023-09-12T02:21:14;18.70;99.90
4399;DHT22;2213;49.720;7.296;2023-09-12T02:23:44;18.70;99.90
4399;DHT22;2213;49.720;7.296;2023-09-12T02:26:15;18.70;99.90
4399;DHT22;2213;49.720;7.296;2023-09-12T02:28:47;18.70;99.90
4399;DHT22;2213;49.720;7.296;2023-09-12T02:31:17;18.70;99.90
4399;DHT22;2213;49.720;7.296;2023-09-12T02:33:48;18.70;99.90
4399;DHT22;2213;49.720;7.296;2023-09-12T02:36:18;18.60;99.90
4399;DHT22;2213;49.720;7.296;2023-09-12T02:38:50;18.70;99.90
4399;DHT22;2213;49.720;7.296;2023-09-12T02:41:20;18.60;99.90
4399;DHT22;2213;49.720;7.296;2023-09-12T02:43:52;18.50;99.90
4399;DHT22;2213;49.720;7.296;2023-09-12T02:46:23;18.70;99.90
4399;DHT22;2213;49.720;7.296;2023-09-12T02:48:52;18.60;99.90
4399;DHT22;2213;49.720;7.296;2023-09-12T02:51:24;18.50;99.90
4399;DHT22;2213;49.720;7.296;2023-09-12T02:53:54;18.50;99.90
4399;DHT22;2213;49.720;7.296;2023-09-12T02:56:25;18.50;99.90
4399;DHT22;2213;49.720;7.296;2023-09-12T02:58:57;18.40;99.90
4399;DHT22;2213;49.720;7.296;2023-09-12T03:01:27;18.40;99.90
4399;DHT22;2213;49.720;7.296;2023-09-12T03:03:57;18.50;99.90
4399;DHT22;2213;49.720;7.296;2023-09-12T03:06:28;18.50;99.90
4399;DHT22;2213;49.720;7.296;2023-09-12T03:08:58;18.40;99.90
4399;DHT22;2213;49.720;7.296;2023-09-12T03:11:28;18.50;99.90
4399;DHT22;2213;49.720;7.296;2023-09-12T03:14:00;18.50;99.90
4399;DHT22;2213;49.720;7.296;2023-09-12T03:16:31;18.60;99.90
4399;DHT22;2213;49.720;7.296;2023-09-12T03:19:02;18.50;99.90
4399;DHT22;2213;49.720;7.296;2023-09-12T03:21:32;18.50;99.90
4399;DHT22;2213;49.720;7.296;2023-09-12T03:24:02;18.50;99.90
4399;DHT22;2213;49.720;7.296;2023-09-12T03:26:34;18.50;99.90
4399;DHT22;2213;49.720;7.296;2023-09-12T03:29:05;18.60;99.90
4399;DHT22;2213;49.720;7.296;2023-09-12T03:31:35;18.50;99.90
4399;DHT22;2213;49.720;7.296;2023-09-12T03:34:05;18.40;99.90
4399;DHT22;2213;49.720;7.296;2023-09-12T03:36:35;18.40;99.90
4399;DHT22;2213;49.720;7.296;2023-09-12T03:39:06;18.30;99.90
4399;DHT22;2213;49.720;7.296;2023-09-12T03:41:36;18.40;99.90
4399;DHT22;2213;49.720;7.296;2023-09-12T03:44:07;18.40;99.90
4399;DHT22;2213;49.720;7.296;2023-09-12T03:46:38;18.30;99.90
4399;DHT22;2213;49.720;7.296;2023-09-12T03:49:08;18.50;99.90
4399;DHT22;2213;49.720;7.296;2023-09-12T03:51:38;18.50;99.90
4399;DHT22;2213;49.720;7.296;2023-09-12T03:54:09;18.50;99.90
4399;DHT22;2213;49.720;7.296;2023-09-12T03:56:40;18.50;99.90
4399;DHT22;2213;49.720;7.296;2023-09-12T03:59:14;18.50;99.90
4399;DHT22;2213;49.720;7.296;2023-09-12T04:01:44;18.60;99.90
4399;DHT22;2213;49.720;7.296;2023-09-12T04:04:15;18.60;99.90
4399;DHT22;2213;49.720;7.296;2023-09-12T04:06:45;18.60;99.90
4399;DHT22;2213;49.720;7.296;2023-09-12T04:09:15;18.50;99.90
4399;DHT22;2213;49.720;7.296;2023-09-12T04:11:45;18.40;99.90
4399;DHT22;2213;49.720;7.296;2023-09-12T04:14:18;18.30;99.90
4399;DHT22;2213;49.720;7.296;2023-09-12T04:16:48;18.30;99.90
4399;DHT22;2213;49.720;7.296;2023-09-12T04:19:17;18.20;99.90
4399;DHT22;2213;49.720;7.296;2023-09-12T04:21:47;18.30;99.90
4399;DHT22;2213;49.720;7.296;2023-09-12T04:24:18;18.20;99.90
4399;DHT22;2213;49.720;7.296;2023-09-12T04:26:49;18.20;99.90
4399;DHT22;2213;49.720;7.296;2023-09-12T04:29:20;18.10;99.90
4399;DHT22;2213;49.720;7.296;2023-09-12T04:31:49;18.10;99.90
4399;DHT22;2213;49.720;7.296;2023-09-12T04:34:27;18.10;99.90
4399;DHT22;2213;49.720;7.296;2023-09-12T04:36:57;18.10;99.90
4399;DHT22;2213;49.720;7.296;2023-09-12T04:39:26;18.10;99.90
4399;DHT22;2213;49.720;7.296;2023-09-12T04:41:56;18.00;99.90
4399;DHT22;2213;49.720;7.296;2023-09-12T04:44:26;18.10;99.90
4399;DHT22;2213;49.720;7.296;2023-09-12T04:46:56;18.10;99.90
4399;DHT22;2213;49.720;7.296;2023-09-12T04:49:27;18.00;99.90
4399;DHT22;2213;49.720;7.296;2023-09-12T04:51:57;18.00;99.90
4399;DHT22;2213;49.720;7.296;2023-09-12T04:54:27;18.00;99.90
4399;DHT22;2213;49.720;7.296;2023-09-12T04:56:56;17.90;99.90
4399;DHT22;2213;49.720;7.296;2023-09-12T04:59:27;17.80;99.90
4399;DHT22;2213;49.720;7.296;2023-09-12T05:01:57;17.90;99.90
4399;DHT22;2213;49.720;7.296;2023-09-12T05:04:25;18.00;99.90
4399;DHT22;2213;49.720;7.296;2023-09-12T05:06:57;17.80;99.90
4399;DHT22;2213;49.720;7.296;2023-09-12T05:09:27;17.80;99.90
4399;DHT22;2213;49.720;7.296;2023-09-12T05:11:56;17.80;99.90
4399;DHT22;2213;49.720;7.296;2023-09-12T05:14:29;17.80;99.90
4399;DHT22;2213;49.720;7.296;2023-09-12T05:17:01;17.90;99.90
4399;DHT22;2213;49.720;7.296;2023-09-12T05:19:31;17.80;99.90
4399;DHT22;2213;49.720;7.296;2023-09-12T05:22:01;17.80;99.90
4399;DHT22;2213;49.720;7.296;2023-09-12T05:24:30;17.80;99.90
4399;DHT22;2213;49.720;7.296;2023-09-12T05:27:00;17.80;99.90
4399;DHT22;2213;49.720;7.296;2023-09-12T05:29:34;17.70;99.90
4399;DHT22;2213;49.720;7.296;2023-09-12T05:32:05;17.70;99.90
4399;DHT22;2213;49.720;7.296;2023-09-12T05:34:35;17.70;99.90
4399;DHT22;2213;49.720;7.296;2023-09-12T05:37:06;17.70;99.90
4399;DHT22;2213;49.720;7.296;2023-09-12T05:39:36;17.70;99.90
4399;DHT22;2213;49.720;7.296;2023-09-12T05:42:06;17.60;99.90
4399;DHT22;2213;49.720;7.296;2023-09-12T05:44:38;17.50;99.90
4399;DHT22;2213;49.720;7.296;2023-09-12T05:47:10;17.50;99.90
4399;DHT22;2213;49.720;7.296;2023-09-12T05:49:40;17.60;99.90
4399;DHT22;2213;49.720;7.296;2023-09-12T05:52:10;17.70;99.90
4399;DHT22;2213;49.720;7.296;2023-09-12T05:54:40;17.60;99.90
4399;DHT22;2213;49.720;7.296;2023-09-12T05:57:11;17.60;99.90
4399;DHT22;2213;49.720;7.296;2023-09-12T05:59:43;17.60;99.90
4399;DHT22;2213;49.720;7.296;2023-09-12T06:02:13;17.60;99.90
4399;DHT22;2213;49.720;7.296;2023-09-12T06:04:43;17.60;99.90
4399;DHT22;2213;49.720;7.296;2023-09-12T06:07:12;17.50;99.90
4399;DHT22;2213;49.720;7.296;2023-09-12T06:09:42;17.50;99.90
4399;DHT22;2213;49.720;7.296;2023-09-12T06:12:12;17.60;99.90
4399;DHT22;2213;49.720;7.296;2023-09-12T06:14:43;17.60;99.90
4399;DHT22;2213;49.720;7.296;2023-09-12T06:17:13;17.70;99.90
4399;DHT22;2213;49.720;7.296;2023-09-12T06:19:42;17.70;99.90
4399;DHT22;2213;49.720;7.296;2023-09-12T06:22:12;17.80;99.90
4399;DHT22;2213;49.720;7.296;2023-09-12T06:24:43;17.80;99.90
4399;DHT22;2213;49.720;7.296;2023-09-12T06:27:13;17.80;99.90
4399;DHT22;2213;49.720;7.296;2023-09-12T06:29:48;17.80;99.90
4399;DHT22;2213;49.720;7.296;2023-09-12T06:32:18;17.80;99.90
4399;DHT22;2213;49.720;7.296;2023-09-12T06:34:48;17.80;99.90
4399;DHT22;2213;49.720;7.296;2023-09-12T06:37:18;17.80;99.90
4399;DHT22;2213;49.720;7.296;2023-09-12T06:39:50;18.00;99.90
4399;DHT22;2213;49.720;7.296;2023-09-12T06:42:18;18.00;99.90
4399;DHT22;2213;49.720;7.296;2023-09-12T06:44:50;18.00;99.90
4399;DHT22;2213;49.720;7.296;2023-09-12T06:47:20;18.00;99.90
4399;DHT22;2213;49.720;7.296;2023-09-12T06:49:51;18.00;99.90
4399;DHT22;2213;49.720;7.296;2023-09-12T06:52:23;17.90;99.90
4399;DHT22;2213;49.720;7.296;2023-09-12T06:54:53;18.00;99.90
4399;DHT22;2213;49.720;7.296;2023-09-12T06:57:23;18.00;99.90
4399;DHT22;2213;49.720;7.296;2023-09-12T06:59:55;18.10;99.90
4399;DHT22;2213;49.720;7.296;2023-09-12T07:02:26;18.10;99.90
4399;DHT22;2213;49.720;7.296;2023-09-12T07:04:57;18.10;99.90
4399;DHT22;2213;49.720;7.296;2023-09-12T07:07:27;18.20;99.90
4399;DHT22;2213;49.720;7.296;2023-09-12T07:09:58;18.20;99.90
4399;DHT22;2213;49.720;7.296;2023-09-12T07:12:49;18.30;99.90
4399;DHT22;2213;49.720;7.296;2023-09-12T07:15:20;18.30;99.90
4399;DHT22;2213;49.720;7.296;2023-09-12T07:17:51;18.40;99.90
4399;DHT22;2213;49.720;7.296;2023-09-12T07:20:22;18.40;99.90
4399;DHT22;2213;49.720;7.296;2023-09-12T07:22:53;18.30;99.90
4399;DHT22;2213;49.720;7.296;2023-09-12T07:25:23;18.30;99.90
4399;DHT22;2213;49.720;7.296;2023-09-12T07:27:54;18.30;99.90
4399;DHT22;2213;49.720;7.296;2023-09-12T07:30:26;18.40;99.90
4399;DHT22;2213;49.720;7.296;2023-09-12T07:32:57;18.40;99.90
4399;DHT22;2213;49.720;7.296;2023-09-12T07:35:28;18.50;99.90
4399;DHT22;2213;49.720;7.296;2023-09-12T07:37:59;18.60;99.90
4399;DHT22;2213;49.720;7.296;2023-09-12T07:40:31;18.60;99.90
4399;DHT22;2213;49.720;7.296;2023-09-12T07:43:00;18.70;99.90
4399;DHT22;2213;49.720;7.296;2023-09-12T07:45:33;18.70;99.90
4399;DHT22;2213;49.720;7.296;2023-09-12T07:48:06;18.80;99.90
4399;DHT22;2213;49.720;7.296;2023-09-12T07:50:37;18.80;99.90
4399;DHT22;2213;49.720;7.296;2023-09-12T07:53:07;18.90;99.90
4399;DHT22;2213;49.720;7.296;2023-09-12T07:55:38;18.90;99.90
4399;DHT22;2213;49.720;7.296;2023-09-12T07:58:14;18.90;99.90
4399;DHT22;2213;49.720;7.296;2023-09-12T08:00:47;18.90;99.90
4399;DHT22;2213;49.720;7.296;2023-09-12T08:03:18;19.00;99.90
4399;DHT22;2213;49.720;7.296;2023-09-12T08:05:55;19.10;99.90
4399;DHT22;2213;49.720;7.296;2023-09-12T08:08:24;19.10;99.90
4399;DHT22;2213;49.720;7.296;2023-09-12T08:10:54;19.20;99.90
4399;DHT22;2213;49.720;7.296;2023-09-12T08:13:26;19.20;99.90
4399;DHT22;2213;49.720;7.296;2023-09-12T08:15:59;19.30;99.90
4399;DHT22;2213;49.720;7.296;2023-09-12T08:18:30;19.40;99.90
4399;DHT22;2213;49.720;7.296;2023-09-12T08:21:01;19.50;99.90
4399;DHT22;2213;49.720;7.296;2023-09-12T08:23:30;19.50;99.90
4399;DHT22;2213;49.720;7.296;2023-09-12T08:26:01;19.50;99.90
4399;DHT22;2213;49.720;7.296;2023-09-12T08:28:31;19.60;99.90
4399;DHT22;2213;49.720;7.296;2023-09-12T08:31:03;19.70;99.90
4399;DHT22;2213;49.720;7.296;2023-09-12T08:33:33;19.80;99.90
4399;DHT22;2213;49.720;7.296;2023-09-12T08:36:04;19.90;99.90
4399;DHT22;2213;49.720;7.296;2023-09-12T08:38:34;19.90;99.90
4399;DHT22;2213;49.720;7.296;2023-09-12T08:41:06;20.00;99.90
4399;DHT22;2213;49.720;7.296;2023-09-12T08:43:37;20.10;99.90
4399;DHT22;2213;49.720;7.296;2023-09-12T08:46:09;20.10;99.90
4399;DHT22;2213;49.720;7.296;2023-09-12T08:48:42;20.20;99.90
4399;DHT22;2213;49.720;7.296;2023-09-12T08:51:13;20.30;99.90
4399;DHT22;2213;49.720;7.296;2023-09-12T08:53:43;20.30;99.90
4399;DHT22;2213;49.720;7.296;2023-09-12T08:56:13;20.40;99.90
4399;DHT22;2213;49.720;7.296;2023-09-12T08:58:45;20.40;99.90
4399;DHT22;2213;49.720;7.296;2023-09-12T09:01:18;20.50;99.90
4399;DHT22;2213;49.720;7.296;2023-09-12T09:03:48;20.50;99.90
4399;DHT22;2213;49.720;7.296;2023-09-12T09:06:19;20.60;99.90
4399;DHT22;2213;49.720;7.296;2023-09-12T09:08:52;20.60;99.90
4399;DHT22;2213;49.720;7.296;2023-09-12T09:11:23;20.70;99.90
4399;DHT22;2213;49.720;7.296;2023-09-12T09:13:56;20.70;99.90
4399;DHT22;2213;49.720;7.296;2023-09-12T09:16:28;20.80;99.90
4399;DHT22;2213;49.720;7.296;2023-09-12T09:19:00;20.90;99.90
4399;DHT22;2213;49.720;7.296;2023-09-12T09:21:33;20.90;99.90
4399;DHT22;2213;49.720;7.296;2023-09-12T09:24:06;21.00;99.90
4399;DHT22;2213;49.720;7.296;2023-09-12T09:26:43;21.10;99.90
4399;DHT22;2213;49.720;7.296;2023-09-12T09:29:15;21.10;99.90
4399;DHT22;2213;49.720;7.296;2023-09-12T09:31:48;21.20;99.90
4399;DHT22;2213;49.720;7.296;2023-09-12T09:34:20;21.20;99.90
4399;DHT22;2213;49.720;7.296;2023-09-12T09:36:53;21.30;99.90
4399;DHT22;2213;49.720;7.296;2023-09-12T09:39:25;21.30;99.90
4399;DHT22;2213;49.720;7.296;2023-09-12T09:41:57;21.40;99.90
4399;DHT22;2213;49.720;7.296;2023-09-12T09:44:26;21.50;99.90
4399;DHT22;2213;49.720;7.296;2023-09-12T09:47:00;21.60;99.90
4399;DHT22;2213;49.720;7.296;2023-09-12T09:49:33;21.80;99.90
4399;DHT22;2213;49.720;7.296;2023-09-12T09:52:04;21.80;99.90
4399;DHT22;2213;49.720;7.296;2023-09-12T09:54:34;21.90;99.90
4399;DHT22;2213;49.720;7.296;2023-09-12T09:57:05;22.00;99.90
4399;DHT22;2213;49.720;7.296;2023-09-12T09:59:36;22.10;99.90
4399;DHT22;2213;49.720;7.296;2023-09-12T10:02:11;22.20;99.90
4399;DHT22;2213;49.720;7.296;2023-09-12T10:04:52;22.30;99.90
4399;DHT22;2213;49.720;7.296;2023-09-12T10:07:28;22.40;99.90
4399;DHT22;2213;49.720;7.296;2023-09-12T10:10:02;22.50;99.90
4399;DHT22;2213;49.720;7.296;2023-09-12T10:12:31;22.60;99.90
4399;DHT22;2213;49.720;7.296;2023-09-12T10:15:04;22.60;99.90
4399;DHT22;2213;49.720;7.296;2023-09-12T10:17:40;22.70;99.90
4399;DHT22;2213;49.720;7.296;2023-09-12T10:20:16;22.80;99.90
4399;DHT22;2213;49.720;7.296;2023-09-12T10:22:59;22.80;99.90
4399;DHT22;2213;49.720;7.296;2023-09-12T10:25:37;22.90;99.90
4399;DHT22;2213;49.720;7.296;2023-09-12T10:28:08;22.90;99.90
4399;DHT22;2213;49.720;7.296;2023-09-12T10:30:39;23.00;99.90
4399;DHT22;2213;49.720;7.296;2023-09-12T10:33:13;23.00;99.90
4399;DHT22;2213;49.720;7.296;2023-09-12T10:35:47;23.10;99.90
4399;DHT22;2213;49.720;7.296;2023-09-12T10:38:20;23.10;99.90
4399;DHT22;2213;49.720;7.296;2023-09-12T10:40:53;23.20;99.90
4399;DHT22;2213;49.720;7.296;2023-09-12T10:43:25;23.30;99.90
4399;DHT22;2213;49.720;7.296;2023-09-12T10:45:59;23.30;99.90
4399;DHT22;2213;49.720;7.296;2023-09-12T10:48:35;23.40;99.90
4399;DHT22;2213;49.720;7.296;2023-09-12T10:51:08;23.50;99.90
4399;DHT22;2213;49.720;7.296;2023-09-12T10:53:45;23.60;99.90
4399;DHT22;2213;49.720;7.296;2023-09-12T10:56:19;23.70;99.90
4399;DHT22;2213;49.720;7.296;2023-09-12T10:59:13;23.70;99.90
4399;DHT22;2213;49.720;7.296;2023-09-12T11:01:43;23.80;99.90
4399;DHT22;2213;49.720;7.296;2023-09-12T11:04:33;23.80;99.90
4399;DHT22;2213;49.720;7.296;2023-09-12T11:07:32;23.90;99.90
4399;DHT22;2213;49.720;7.296;2023-09-12T11:10:20;23.90;99.90
4399;DHT22;2213;49.720;7.296;2023-09-12T11:12:52;24.10;99.90
4399;DHT22;2213;49.720;7.296;2023-09-12T11:15:24;24.00;99.90
4399;DHT22;2213;49.720;7.296;2023-09-12T11:18:02;24.10;99.90
4399;DHT22;2213;49.720;7.296;2023-09-12T11:20:52;24.10;99.90
4399;DHT22;2213;49.720;7.296;2023-09-12T11:23:27;24.10;99.90
4399;DHT22;2213;49.720;7.296;2023-09-12T11:26:05;24.20;99.90
4399;DHT22;2213;49.720;7.296;2023-09-12T11:28:36;24.30;99.90
4399;DHT22;2213;49.720;7.296;2023-09-12T11:31:06;24.40;99.90
4399;DHT22;2213;49.720;7.296;2023-09-12T11:33:35;24.40;99.90
4399;DHT22;2213;49.720;7.296;2023-09-12T11:36:14;24.40;99.90
4399;DHT22;2213;49.720;7.296;2023-09-12T11:38:49;24.40;99.90
4399;DHT22;2213;49.720;7.296;2023-09-12T11:41:40;24.40;99.90
4399;DHT22;2213;49.720;7.296;2023-09-12T11:44:09;24.50;99.90
4399;DHT22;2213;49.720;7.296;2023-09-12T11:46:40;24.50;99.90
4399;DHT22;2213;49.720;7.296;2023-09-12T11:49:11;24.50;99.90
4399;DHT22;2213;49.720;7.296;2023-09-12T11:51:47;24.60;99.90
4399;DHT22;2213;49.720;7.296;2023-09-12T11:54:19;24.60;99.90
4399;DHT22;2213;49.720;7.296;2023-09-12T11:56:49;24.60;99.90
4399;DHT22;2213;49.720;7.296;2023-09-12T11:59:23;24.70;99.90
4399;DHT22;2213;49.720;7.296;2023-09-12T12:01:54;24.70;99.90
4399;DHT22;2213;49.720;7.296;2023-09-12T12:04:24;24.70;99.90
4399;DHT22;2213;49.720;7.296;2023-09-12T12:06:57;24.80;99.90
4399;DHT22;2213;49.720;7.296;2023-09-12T12:09:25;24.80;99.90
4399;DHT22;2213;49.720;7.296;2023-09-12T12:11:55;24.80;99.90
4399;DHT22;2213;49.720;7.296;2023-09-12T12:14:29;24.80;99.90
4399;DHT22;2213;49.720;7.296;2023-09-12T12:17:08;24.90;99.90
4399;DHT22;2213;49.720;7.296;2023-09-12T12:19:44;24.90;99.90
4399;DHT22;2213;49.720;7.296;2023-09-12T12:22:15;25.00;99.90
4399;DHT22;2213;49.720;7.296;2023-09-12T12:24:46;25.00;99.90
4399;DHT22;2213;49.720;7.296;2023-09-12T12:27:17;25.00;99.90
4399;DHT22;2213;49.720;7.296;2023-09-12T12:29:48;25.10;99.90
4399;DHT22;2213;49.720;7.296;2023-09-12T12:32:19;25.10;99.90
4399;DHT22;2213;49.720;7.296;2023-09-12T12:34:50;25.20;99.90
4399;DHT22;2213;49.720;7.296;2023-09-12T12:37:41;25.20;99.90
4399;DHT22;2213;49.720;7.296;2023-09-12T12:40:17;25.30;99.90
4399;DHT22;2213;49.720;7.296;2023-09-12T12:42:47;25.40;99.90
4399;DHT22;2213;49.720;7.296;2023-09-12T12:45:23;25.40;99.90
4399;DHT22;2213;49.720;7.296;2023-09-12T12:47:58;25.50;99.90
4399;DHT22;2213;49.720;7.296;2023-09-12T12:50:28;25.50;99.90
4399;DHT22;2213;49.720;7.296;2023-09-12T12:52:59;25.60;99.90
4399;DHT22;2213;49.720;7.296;2023-09-12T12:55:29;25.60;99.90
4399;DHT22;2213;49.720;7.296;2023-09-12T12:58:04;25.70;99.90
4399;DHT22;2213;49.720;7.296;2023-09-12T13:00:34;25.80;99.90
4399;DHT22;2213;49.720;7.296;2023-09-12T13:03:04;25.80;99.90
4399;DHT22;2213;49.720;7.296;2023-09-12T13:05:33;26.00;99.90
4399;DHT22;2213;49.720;7.296;2023-09-12T13:08:05;26.00;99.90
4399;DHT22;2213;49.720;7.296;2023-09-12T13:10:34;26.10;99.90
4399;DHT22;2213;49.720;7.296;2023-09-12T13:13:05;26.10;99.90
4399;DHT22;2213;49.720;7.296;2023-09-12T13:15:34;26.30;99.90
4399;DHT22;2213;49.720;7.296;2023-09-12T13:18:03;26.30;99.90
4399;DHT22;2213;49.720;7.296;2023-09-12T13:20:35;26.40;99.90
4399;DHT22;2213;49.720;7.296;2023-09-12T13:23:06;26.40;99.90
4399;DHT22;2213;49.720;7.296;2023-09-12T13:25:36;26.50;99.90
4399;DHT22;2213;49.720;7.296;2023-09-12T13:28:06;26.50;99.90
4399;DHT22;2213;49.720;7.296;2023-09-12T13:30:37;26.50;99.90
4399;DHT22;2213;49.720;7.296;2023-09-12T13:33:08;26.60;99.90
4399;DHT22;2213;49.720;7.296;2023-09-12T13:35:38;26.70;99.90
4399;DHT22;2213;49.720;7.296;2023-09-12T13:38:10;26.80;99.90
4399;DHT22;2213;49.720;7.296;2023-09-12T13:40:40;26.80;99.90
4399;DHT22;2213;49.720;7.296;2023-09-12T13:43:10;26.90;99.90
4399;DHT22;2213;49.720;7.296;2023-09-12T13:45:40;27.00;99.90
4399;DHT22;2213;49.720;7.296;2023-09-12T13:48:10;27.10;99.90
4399;DHT22;2213;49.720;7.296;2023-09-12T13:50:41;27.40;99.90
4399;DHT22;2213;49.720;7.296;2023-09-12T13:53:12;27.70;99.90
4399;DHT22;2213;49.720;7.296;2023-09-12T13:55:44;27.60;99.90
4399;DHT22;2213;49.720;7.296;2023-09-12T13:58:31;27.80;99.90
4399;DHT22;2213;49.720;7.296;2023-09-12T14:01:10;27.80;99.90
4399;DHT22;2213;49.720;7.296;2023-09-12T14:03:54;27.70;99.90
4399;DHT22;2213;49.720;7.296;2023-09-12T14:06:25;27.80;99.90
4399;DHT22;2213;49.720;7.296;2023-09-12T14:08:56;27.80;99.90
4399;DHT22;2213;49.720;7.296;2023-09-12T14:11:25;27.90;99.90
4399;DHT22;2213;49.720;7.296;2023-09-12T14:14:03;28.00;99.90
4399;DHT22;2213;49.720;7.296;2023-09-12T14:16:43;28.00;99.90
4399;DHT22;2213;49.720;7.296;2023-09-12T14:19:15;28.10;99.90
4399;DHT22;2213;49.720;7.296;2023-09-12T14:21:47;28.10;99.90
4399;DHT22;2213;49.720;7.296;2023-09-12T14:24:23;28.00;99.30
4399;DHT22;2213;49.720;7.296;2023-09-12T14:26:52;28.00;98.80
4399;DHT22;2213;49.720;7.296;2023-09-12T14:29:24;28.10;97.60
4399;DHT22;2213;49.720;7.296;2023-09-12T14:31:56;28.20;97.70
4399;DHT22;2213;49.720;7.296;2023-09-12T14:34:26;28.40;97.10
4399;DHT22;2213;49.720;7.296;2023-09-12T14:36:59;28.50;97.30
4399;DHT22;2213;49.720;7.296;2023-09-12T14:39:31;28.60;97.80
4399;DHT22;2213;49.720;7.296;2023-09-12T14:42:01;28.60;97.80
4399;DHT22;2213;49.720;7.296;2023-09-12T14:44:36;28.60;95.70
4399;DHT22;2213;49.720;7.296;2023-09-12T14:47:06;28.50;96.40
4399;DHT22;2213;49.720;7.296;2023-09-12T14:49:35;28.60;96.10
4399;DHT22;2213;49.720;7.296;2023-09-12T14:52:15;28.70;95.40
4399;DHT22;2213;49.720;7.296;2023-09-12T14:54:55;28.70;96.10
4399;DHT22;2213;49.720;7.296;2023-09-12T14:57:25;28.80;96.60
4399;DHT22;2213;49.720;7.296;2023-09-12T14:59:55;28.80;96.60
4399;DHT22;2213;49.720;7.296;2023-09-12T15:02:25;28.70;94.90
4399;DHT22;2213;49.720;7.296;2023-09-12T15:04:59;28.70;95.70
4399;DHT22;2213;49.720;7.296;2023-09-12T15:07:29;28.80;95.40
4399;DHT22;2213;49.720;7.296;2023-09-12T15:10:00;28.90;94.20
4399;DHT22;2213;49.720;7.296;2023-09-12T15:12:31;28.70;94.00
4399;DHT22;2213;49.720;7.296;2023-09-12T15:15:03;28.70;96.40
4399;DHT22;2213;49.720;7.296;2023-09-12T15:17:44;28.80;95.80
4399;DHT22;2213;49.720;7.296;2023-09-12T15:20:14;28.90;96.00
4399;DHT22;2213;49.720;7.296;2023-09-12T15:22:44;28.60;95.90
4399;DHT22;2213;49.720;7.296;2023-09-12T15:25:13;28.90;95.70
4399;DHT22;2213;49.720;7.296;2023-09-12T15:27:42;28.90;98.10
4399;DHT22;2213;49.720;7.296;2023-09-12T15:30:13;28.90;98.70
4399;DHT22;2213;49.720;7.296;2023-09-12T15:32:45;28.90;99.10
4399;DHT22;2213;49.720;7.296;2023-09-12T15:35:16;28.70;99.20
4399;DHT22;2213;49.720;7.296;2023-09-12T15:37:47;28.70;99.50
4399;DHT22;2213;49.720;7.296;2023-09-12T15:40:18;28.90;99.60
4399;DHT22;2213;49.720;7.296;2023-09-12T15:42:48;28.90;99.70
4399;DHT22;2213;49.720;7.296;2023-09-12T15:45:17;29.00;99.80
4399;DHT22;2213;49.720;7.296;2023-09-12T15:47:50;29.00;99.90
4399;DHT22;2213;49.720;7.296;2023-09-12T15:50:20;29.00;99.90
4399;DHT22;2213;49.720;7.296;2023-09-12T15:52:49;29.00;99.80
4399;DHT22;2213;49.720;7.296;2023-09-12T15:55:18;29.00;99.70
4399;DHT22;2213;49.720;7.296;2023-09-12T15:57:48;28.80;99.90
4399;DHT22;2213;49.720;7.296;2023-09-12T16:00:17;28.90;99.90
4399;DHT22;2213;49.720;7.296;2023-09-12T16:02:49;28.90;99.90
4399;DHT22;2213;49.720;7.296;2023-09-12T16:05:23;28.90;99.90
4399;DHT22;2213;49.720;7.296;2023-09-12T16:07:53;28.90;99.90
4399;DHT22;2213;49.720;7.296;2023-09-12T16:10:21;28.70;99.90
4399;DHT22;2213;49.720;7.296;2023-09-12T16:12:51;28.80;99.90
4399;DHT22;2213;49.720;7.296;2023-09-12T16:15:21;28.60;99.90
4399;DHT22;2213;49.720;7.296;2023-09-12T16:17:56;28.50;99.90
4399;DHT22;2213;49.720;7.296;2023-09-12T16:20:26;28.50;99.90
4399;DHT22;2213;49.720;7.296;2023-09-12T16:22:55;28.30;99.90
4399;DHT22;2213;49.720;7.296;2023-09-12T16:25:25;28.20;99.90
4399;DHT22;2213;49.720;7.296;2023-09-12T16:27:55;28.20;99.90
4399;DHT22;2213;49.720;7.296;2023-09-12T16:30:24;28.10;99.90
4399;DHT22;2213;49.720;7.296;2023-09-12T16:32:54;27.90;99.90